createdAt,value
2019-05-06T00:00:13.835Z,3.70
2019-05-06T00:02:43.455Z,3.73
2019-05-06T00:05:11.047Z,3.90
2019-05-06T00:07:38.539Z,3.57
2019-05-06T00:10:19.159Z,4.40
2019-05-06T00:12:46.668Z,4.07
2019-05-06T00:15:14.657Z,4.07
2019-05-06T00:17:44.602Z,3.27
2019-05-06T00:20:14.633Z,3.80
2019-05-06T00:22:43.582Z,3.53
2019-05-06T00:25:16.905Z,3.87
2019-05-06T00:28:16.130Z,3.90
2019-05-06T00:30:45.414Z,3.47
2019-05-06T00:33:13.600Z,3.53
2019-05-06T00:35:41.134Z,3.53
2019-05-06T00:38:08.637Z,3.50
2019-05-06T00:40:38.051Z,4.93
2019-05-06T00:43:07.425Z,3.73
2019-05-06T00:45:34.912Z,4.13
2019-05-06T00:48:04.476Z,4.33
2019-05-06T00:50:31.636Z,3.50
2019-05-06T00:53:00.704Z,4.07
2019-05-06T00:55:28.202Z,3.53
2019-05-06T00:57:55.684Z,3.47
2019-05-06T01:00:33.543Z,4.00
2019-05-06T01:03:00.644Z,4.20
2019-05-06T01:05:28.094Z,4.20
2019-05-06T01:07:56.150Z,4.23
2019-05-06T01:10:23.867Z,4.33
2019-05-06T01:12:57.939Z,3.87
2019-05-06T01:15:26.769Z,3.80
2019-05-06T01:17:54.232Z,3.70
2019-05-06T01:20:21.734Z,3.67
2019-05-06T01:22:49.195Z,3.87
2019-05-06T01:25:16.816Z,3.63
2019-05-06T01:27:44.521Z,3.70
2019-05-06T01:30:13.674Z,3.87
2019-05-06T01:32:43.443Z,3.70
2019-05-06T01:35:10.682Z,3.83
2019-05-06T01:37:39.213Z,4.03
2019-05-06T01:40:20.392Z,3.67
2019-05-06T01:43:03.608Z,4.07
2019-05-06T01:45:31.062Z,3.73
2019-05-06T01:47:58.835Z,3.57
2019-05-06T01:50:26.307Z,3.77
2019-05-06T01:52:54.118Z,3.87
2019-05-06T01:55:23.771Z,4.00
2019-05-06T01:57:50.982Z,3.90
2019-05-06T02:00:18.485Z,3.90
2019-05-06T02:02:45.944Z,4.00
2019-05-06T02:05:13.792Z,4.13
2019-05-06T02:07:42.035Z,4.23
2019-05-06T02:10:10.842Z,3.60
2019-05-06T02:12:38.292Z,3.70
2019-05-06T02:15:06.502Z,3.53
2019-05-06T02:17:34.564Z,4.63
2019-05-06T02:20:04.188Z,3.63
2019-05-06T02:22:43.817Z,3.87
2019-05-06T02:25:15.342Z,3.83
2019-05-06T02:27:44.511Z,4.07
2019-05-06T02:30:25.262Z,4.83
2019-05-06T02:33:06.012Z,3.80
2019-05-06T02:35:37.963Z,4.63
2019-05-06T02:38:23.396Z,3.50
2019-05-06T02:40:53.555Z,4.07
2019-05-06T02:43:22.918Z,3.93
2019-05-06T02:45:52.884Z,3.90
2019-05-06T02:48:43.279Z,4.47
2019-05-06T02:51:14.191Z,4.30
2019-05-06T02:53:42.964Z,4.23
2019-05-06T02:56:13.234Z,4.00
2019-05-06T02:58:39.771Z,4.47
2019-05-06T03:01:07.211Z,4.33
2019-05-06T03:03:34.660Z,4.40
2019-05-06T03:06:03.839Z,4.10
2019-05-06T03:08:32.922Z,4.77
2019-05-06T03:11:03.650Z,4.40
2019-05-06T03:13:29.947Z,4.70
2019-05-06T03:15:57.416Z,4.60
2019-05-06T03:18:24.845Z,4.20
2019-05-06T03:21:16.846Z,3.93
2019-05-06T03:23:48.175Z,4.20
2019-05-06T03:26:15.755Z,3.80
2019-05-06T03:28:44.223Z,4.40
2019-05-06T03:31:16.433Z,5.17
2019-05-06T03:33:59.816Z,4.53
2019-05-06T03:36:18.246Z,4.57
2019-05-06T03:38:42.831Z,4.70
2019-05-06T03:41:09.323Z,4.87
2019-05-06T03:43:36.820Z,4.80
2019-05-06T03:46:39.190Z,5.03
2019-05-06T03:49:07.043Z,4.27
2019-05-06T03:54:34.165Z,4.47
2019-05-06T03:57:03.154Z,4.80
2019-05-06T03:59:33.609Z,5.10
2019-05-06T04:02:01.569Z,5.17
2019-05-06T04:04:29.068Z,5.37
2019-05-06T04:06:57.025Z,4.53
2019-05-06T04:09:24.488Z,5.00
2019-05-06T04:11:54.160Z,4.57
2019-05-06T04:14:23.845Z,4.83
2019-05-06T04:17:04.946Z,5.13
2019-05-06T04:19:37.533Z,4.70
2019-05-06T04:22:33.736Z,4.67
2019-05-06T04:25:13.967Z,4.97
2019-05-06T04:27:48.875Z,5.07
2019-05-06T04:30:16.734Z,4.97
2019-05-06T04:32:44.476Z,4.60
2019-05-06T04:35:13.616Z,5.37
2019-05-06T04:37:42.909Z,5.50
2019-05-06T04:40:12.949Z,5.43
2019-05-06T04:42:43.894Z,5.63
2019-05-06T04:45:09.946Z,5.67
2019-05-06T04:47:37.471Z,5.83
2019-05-06T04:50:06.620Z,5.50
2019-05-06T04:52:34.449Z,6.17
2019-05-06T04:55:03.447Z,5.67
2019-05-06T04:57:33.628Z,5.63
2019-05-06T05:00:03.816Z,5.73
2019-05-06T05:02:30.037Z,5.67
2019-05-06T05:04:57.505Z,5.57
2019-05-06T05:07:25.528Z,6.33
2019-05-06T05:10:03.489Z,5.60
2019-05-06T05:12:42.570Z,6.53
2019-05-06T05:15:28.838Z,6.30
2019-05-06T05:18:15.590Z,6.13
2019-05-06T05:20:46.501Z,5.63
2019-05-06T05:23:12.743Z,5.40
2019-05-06T05:25:42.413Z,5.83
2019-05-06T05:28:09.875Z,5.63
2019-05-06T05:30:37.335Z,5.60
2019-05-06T05:33:04.925Z,5.97
2019-05-06T05:35:32.822Z,5.70
2019-05-06T05:38:00.358Z,5.23
2019-05-06T05:40:27.831Z,5.33
2019-05-06T05:43:02.941Z,5.70
2019-05-06T05:45:32.583Z,5.43
2019-05-06T05:48:02.839Z,6.00
2019-05-06T05:50:37.341Z,6.03
2019-05-06T05:53:04.821Z,5.87
2019-05-06T05:55:33.091Z,6.57
2019-05-06T05:58:02.924Z,5.50
2019-05-06T06:00:32.417Z,6.07
2019-05-06T06:02:59.943Z,5.83
2019-05-06T06:05:27.746Z,5.53
2019-05-06T06:07:55.258Z,5.50
2019-05-06T06:10:38.419Z,5.77
2019-05-06T06:13:05.874Z,6.17
2019-05-06T06:15:44.795Z,5.73
2019-05-06T06:18:22.414Z,5.80
2019-05-06T06:21:27.671Z,6.17
2019-05-06T06:23:53.004Z,6.60
2019-05-06T06:26:22.220Z,6.67
2019-05-06T06:28:49.795Z,5.80
2019-05-06T06:31:42.961Z,6.47
2019-05-06T06:34:16.566Z,5.73
2019-05-06T06:36:52.602Z,5.87
2019-05-06T06:39:23.570Z,6.00
2019-05-06T06:41:51.947Z,6.20
2019-05-06T06:44:22.523Z,6.53
2019-05-06T06:46:52.283Z,6.03
2019-05-06T06:49:19.260Z,6.10
2019-05-06T06:51:46.745Z,6.10
2019-05-06T06:54:14.239Z,6.03
2019-05-06T06:57:08.294Z,6.20
2019-05-06T06:59:37.381Z,6.80
2019-05-06T07:02:23.057Z,6.62
2019-05-06T07:05:27.720Z,6.45
2019-05-06T07:07:49.515Z,5.92
2019-05-06T07:10:35.517Z,6.87
2019-05-06T07:13:03.271Z,6.37
2019-05-06T07:15:33.294Z,6.87
2019-05-06T07:18:02.342Z,6.85
2019-05-06T07:20:33.293Z,6.43
2019-05-06T07:23:22.109Z,6.47
2019-05-06T07:25:49.573Z,6.62
2019-05-06T07:28:17.287Z,6.12
2019-05-06T07:30:44.809Z,5.72
2019-05-06T07:33:13.326Z,6.60
2019-05-06T07:35:43.771Z,6.62
2019-05-06T07:38:12.014Z,7.10
2019-05-06T07:40:41.972Z,6.50
2019-05-06T07:43:34.637Z,6.70
2019-05-06T07:46:07.294Z,6.47
2019-05-06T07:48:35.003Z,6.65
2019-05-06T07:51:03.061Z,6.55
2019-05-06T07:53:32.099Z,6.08
2019-05-06T07:55:59.867Z,6.05
2019-05-06T07:58:27.367Z,6.15
2019-05-06T08:00:54.870Z,5.85
2019-05-06T08:03:22.362Z,6.78
2019-05-06T08:05:55.789Z,6.37
2019-05-06T08:08:19.230Z,6.83
2019-05-06T08:10:46.728Z,6.72
2019-05-06T08:13:14.202Z,6.12
2019-05-06T08:15:42.115Z,5.83
2019-05-06T08:18:12.031Z,6.30
2019-05-06T08:20:39.573Z,5.90
2019-05-06T08:23:18.626Z,6.40
2019-05-06T08:25:48.330Z,6.40
2019-05-06T08:28:15.797Z,6.33
2019-05-06T08:30:43.402Z,5.92
2019-05-06T08:33:12.721Z,5.25
2019-05-06T08:35:42.354Z,4.58
2019-05-06T08:38:09.462Z,5.65
2019-05-06T08:40:36.970Z,5.45
2019-05-06T08:43:04.448Z,7.05
2019-05-06T08:45:32.564Z,6.25
2019-05-06T08:48:00.125Z,5.85
2019-05-06T08:50:39.016Z,6.85
2019-05-06T08:53:13.649Z,5.80
2019-05-06T08:55:42.104Z,6.30
2019-05-06T08:58:09.766Z,6.65
2019-05-06T09:00:43.280Z,6.83
2019-05-06T09:03:14.052Z,6.10
2019-05-06T09:05:42.475Z,5.15
2019-05-06T09:08:09.960Z,4.60
2019-05-06T09:10:37.464Z,5.10
2019-05-06T09:13:04.951Z,4.62
2019-05-06T09:15:32.849Z,4.40
2019-05-06T09:18:02.798Z,4.00
2019-05-06T09:20:29.739Z,4.28
2019-05-06T09:22:57.732Z,4.50
2019-05-06T09:25:25.600Z,4.78
2019-05-06T09:28:17.359Z,4.83
2019-05-06T09:31:23.080Z,5.40
2019-05-06T09:33:55.775Z,4.60
2019-05-06T09:36:23.569Z,4.10
2019-05-06T09:38:52.974Z,4.15
2019-05-06T09:41:22.954Z,4.10
2019-05-06T09:43:52.647Z,4.12
2019-05-06T09:46:19.281Z,3.95
2019-05-06T09:49:05.094Z,4.33
2019-05-06T09:51:32.604Z,4.40
2019-05-06T09:54:05.677Z,4.87
2019-05-06T09:56:49.728Z,4.70
2019-05-06T09:59:17.304Z,4.90
2019-05-06T10:01:44.807Z,5.10
2019-05-06T10:04:13.087Z,5.83
2019-05-06T10:06:54.976Z,4.58
2019-05-06T10:09:15.325Z,5.35
2019-05-06T10:11:42.182Z,4.55
2019-05-06T10:14:12.574Z,4.78
2019-05-06T10:16:39.379Z,4.62
2019-05-06T10:19:06.843Z,4.67
2019-05-06T10:21:34.298Z,3.67
2019-05-06T10:24:02.233Z,4.37
2019-05-06T10:26:33.713Z,3.80
2019-05-06T10:29:19.546Z,4.60
2019-05-06T10:31:52.413Z,3.92
2019-05-06T10:34:22.067Z,4.30
2019-05-06T10:37:11.532Z,3.90
2019-05-06T10:39:33.280Z,3.70
2019-05-06T10:42:12.751Z,3.72
2019-05-06T10:45:12.369Z,3.87
2019-05-06T10:47:42.210Z,3.65
2019-05-06T10:50:12.564Z,3.83
2019-05-06T10:52:59.705Z,3.95
2019-05-06T10:55:27.161Z,3.42
2019-05-06T10:57:54.671Z,4.58
2019-05-06T11:00:23.019Z,4.28
2019-05-06T11:03:14.402Z,3.58
2019-05-06T11:05:39.562Z,3.00
2019-05-06T11:08:07.043Z,2.92
2019-05-06T11:10:40.974Z,3.17
2019-05-06T11:13:03.843Z,2.47
2019-05-06T11:15:32.992Z,2.70
2019-05-06T11:18:04.233Z,3.02
2019-05-06T11:20:29.919Z,3.12
2019-05-06T11:22:57.390Z,2.95
2019-05-06T11:25:24.899Z,2.47
2019-05-06T11:27:52.794Z,2.30
2019-05-06T11:30:45.925Z,1.98
2019-05-06T11:33:25.905Z,2.10
2019-05-06T11:36:02.211Z,2.47
2019-05-06T11:38:32.126Z,2.47
2019-05-06T11:40:59.463Z,2.17
2019-05-06T11:43:26.961Z,2.00
2019-05-06T11:45:54.453Z,1.52
2019-05-06T11:48:22.461Z,2.10
2019-05-06T11:50:52.022Z,2.00
2019-05-06T11:53:19.494Z,1.90
2019-05-06T11:55:46.975Z,2.27
2019-05-06T11:58:32.769Z,2.37
2019-05-06T12:01:02.998Z,2.55
2019-05-06T12:03:32.540Z,2.67
2019-05-06T12:05:59.782Z,2.55
2019-05-06T12:08:27.235Z,2.65
2019-05-06T12:10:54.736Z,2.40
2019-05-06T12:13:23.000Z,2.40
2019-05-06T12:15:52.203Z,2.60
2019-05-06T12:18:22.935Z,2.50
2019-05-06T12:20:49.533Z,2.20
2019-05-06T12:23:17.020Z,2.40
2019-05-06T12:25:45.732Z,2.52
2019-05-06T12:28:17.196Z,2.00
2019-05-06T12:30:43.309Z,2.60
2019-05-06T12:33:33.273Z,2.20
2019-05-06T12:36:02.794Z,2.20
2019-05-06T12:38:32.467Z,2.90
2019-05-06T12:41:00.260Z,2.52
2019-05-06T12:43:39.704Z,2.80
2019-05-06T12:46:22.525Z,2.33
2019-05-06T12:48:52.023Z,2.77
2019-05-06T12:51:19.533Z,3.22
2019-05-06T12:53:47.003Z,3.20
2019-05-06T12:56:14.671Z,2.83
2019-05-06T12:58:44.268Z,2.65
2019-05-06T13:01:13.598Z,2.52
2019-05-06T13:03:43.088Z,2.80
2019-05-06T13:06:12.730Z,3.08
2019-05-06T13:08:53.864Z,2.90
2019-05-06T13:11:09.471Z,2.95
2019-05-06T13:13:37.324Z,2.72
2019-05-06T13:16:05.423Z,2.67
2019-05-06T13:18:32.908Z,2.80
2019-05-06T13:21:04.174Z,3.00
2019-05-06T13:23:35.748Z,3.45
2019-05-06T13:26:03.372Z,3.20
2019-05-06T13:28:33.506Z,3.17
2019-05-06T13:31:15.754Z,2.98
2019-05-06T13:33:55.077Z,2.95
2019-05-06T13:36:23.006Z,3.08
2019-05-06T13:39:01.446Z,3.47
2019-05-06T13:41:22.063Z,2.65
2019-05-06T13:44:05.462Z,3.83
2019-05-06T13:46:36.399Z,3.42
2019-05-06T13:49:38.726Z,3.70
2019-05-06T13:52:08.018Z,3.20
2019-05-06T13:54:35.489Z,3.35
2019-05-06T13:57:03.206Z,3.50
2019-05-06T13:59:30.951Z,3.15
2019-05-06T14:02:08.233Z,3.55
2019-05-06T14:04:36.006Z,3.15
2019-05-06T14:07:07.228Z,3.33
2019-05-06T14:09:39.642Z,3.20
2019-05-06T14:12:02.681Z,3.17
2019-05-06T14:14:32.246Z,3.47
2019-05-06T14:16:59.634Z,3.60
2019-05-06T14:19:27.105Z,3.55
2019-05-06T14:21:54.585Z,3.27
2019-05-06T14:24:22.370Z,3.08
2019-05-06T14:26:57.821Z,3.58
2019-05-06T14:29:42.119Z,3.02
2019-05-06T14:32:14.430Z,3.27
2019-05-06T14:34:39.004Z,3.58
2019-05-06T14:37:06.518Z,2.87
2019-05-06T14:39:50.160Z,3.27
2019-05-06T14:42:06.243Z,3.83
2019-05-06T14:44:33.723Z,3.35
2019-05-06T14:47:29.839Z,3.33
2019-05-06T14:49:57.615Z,3.50
2019-05-06T14:52:25.096Z,3.60
2019-05-06T14:55:09.029Z,3.05
2019-05-06T14:57:36.480Z,3.20
2019-05-06T15:00:05.298Z,3.35
2019-05-06T15:02:33.802Z,2.95
2019-05-06T15:05:02.925Z,2.87
2019-05-06T15:07:32.757Z,3.47
2019-05-06T15:10:16.323Z,3.85
2019-05-06T15:12:29.222Z,3.40
2019-05-06T15:14:56.724Z,3.75
2019-05-06T15:17:24.230Z,3.70
2019-05-06T15:19:52.593Z,3.65
2019-05-06T15:22:22.374Z,3.40
2019-05-06T15:24:49.601Z,3.20
2019-05-06T15:27:17.119Z,3.70
2019-05-06T15:29:48.862Z,3.75
2019-05-06T15:32:23.948Z,3.83
2019-05-06T15:35:12.787Z,2.98
2019-05-06T15:37:53.527Z,3.40
2019-05-06T15:40:31.964Z,3.00
2019-05-06T15:42:53.379Z,3.50
2019-05-06T15:45:21.877Z,3.15
2019-05-06T15:47:49.510Z,4.12
2019-05-06T15:50:17.075Z,4.10
2019-05-06T15:52:44.613Z,3.98
2019-05-06T15:55:12.477Z,3.85
2019-05-06T15:57:40.334Z,3.95
2019-05-06T16:00:08.869Z,3.90
2019-05-06T16:02:38.984Z,3.90
2019-05-06T16:05:14.047Z,3.45
2019-05-06T16:07:55.287Z,3.60
2019-05-06T16:10:22.866Z,4.45
2019-05-06T16:12:50.338Z,4.05
2019-05-06T16:15:17.936Z,4.10
2019-05-06T16:17:45.438Z,3.98
2019-05-06T16:20:13.161Z,3.85
2019-05-06T16:22:44.235Z,4.28
2019-05-06T16:25:13.252Z,4.15
2019-05-06T16:27:43.842Z,3.62
2019-05-06T16:30:13.098Z,3.40
2019-05-06T16:32:41.932Z,2.95
2019-05-06T16:35:09.574Z,4.20
2019-05-06T16:37:37.059Z,3.27
2019-05-06T16:40:05.754Z,3.60
2019-05-06T16:42:33.306Z,4.10
2019-05-06T16:45:06.536Z,3.77
2019-05-06T16:47:37.051Z,4.10
2019-05-06T16:50:09.722Z,3.87
2019-05-06T16:52:44.810Z,3.65
2019-05-06T16:55:14.363Z,3.58
2019-05-06T16:57:44.961Z,5.17
2019-05-06T17:00:14.593Z,6.22
2019-05-06T17:03:02.049Z,4.37
2019-05-06T17:06:01.199Z,4.20
2019-05-06T17:08:28.702Z,3.95
2019-05-06T17:10:56.264Z,4.22
2019-05-06T17:13:23.772Z,4.05
2019-05-06T17:15:52.925Z,3.37
2019-05-06T17:18:22.604Z,4.65
2019-05-06T17:20:49.774Z,4.00
2019-05-06T17:23:17.334Z,4.33
2019-05-06T17:25:45.026Z,3.92
2019-05-06T17:28:23.031Z,4.95
2019-05-06T17:31:09.993Z,4.50
2019-05-06T17:33:42.823Z,4.30
2019-05-06T17:36:13.109Z,4.20
2019-05-06T17:38:48.486Z,4.03
2019-05-06T17:41:17.548Z,4.47
2019-05-06T17:43:45.594Z,4.22
2019-05-06T17:46:14.790Z,3.87
2019-05-06T17:49:02.352Z,4.72
2019-05-06T17:51:37.423Z,3.70
2019-05-06T17:54:05.415Z,4.70
2019-05-06T17:56:33.550Z,4.35
2019-05-06T17:59:03.034Z,4.37
2019-05-06T18:01:43.315Z,4.65
2019-05-06T18:04:30.270Z,4.40
2019-05-06T18:06:57.812Z,4.12
2019-05-06T18:09:25.377Z,3.87
2019-05-06T18:11:59.065Z,4.10
2019-05-06T18:14:23.158Z,3.77
2019-05-06T18:16:53.613Z,4.30
2019-05-06T18:19:22.271Z,5.05
2019-05-06T18:21:49.813Z,4.15
2019-05-06T18:24:17.336Z,4.87
2019-05-06T18:26:45.186Z,3.98
2019-05-06T18:29:12.769Z,4.33
2019-05-06T18:31:42.490Z,4.40
2019-05-06T18:34:09.597Z,4.73
2019-05-06T18:36:37.479Z,4.30
2019-05-06T18:39:06.112Z,4.80
2019-05-06T18:41:34.304Z,5.53
2019-05-06T18:44:01.822Z,4.80
2019-05-06T18:46:29.281Z,4.97
2019-05-06T18:48:57.085Z,4.40
2019-05-06T18:51:24.795Z,4.55
2019-05-06T18:53:52.604Z,4.43
2019-05-06T18:56:22.205Z,4.23
2019-05-06T18:58:49.516Z,4.80
2019-05-06T19:01:17.020Z,5.17
2019-05-06T19:03:54.413Z,4.63
2019-05-06T19:06:23.247Z,4.83
2019-05-06T19:09:10.272Z,4.87
2019-05-06T19:11:37.862Z,4.93
2019-05-06T19:14:05.811Z,5.23
2019-05-06T19:16:48.296Z,4.77
2019-05-06T19:19:03.787Z,5.37
2019-05-06T19:21:32.606Z,5.10
2019-05-06T19:24:02.649Z,5.10
2019-05-06T19:26:32.317Z,5.27
2019-05-06T19:28:59.891Z,5.40
2019-05-06T19:31:27.399Z,5.73
2019-05-06T19:33:54.929Z,5.50
2019-05-06T19:36:23.461Z,5.20
2019-05-06T19:38:51.789Z,5.17
2019-05-06T19:41:22.348Z,5.90
2019-05-06T19:43:52.252Z,4.67
2019-05-06T19:46:20.451Z,5.97
2019-05-06T19:48:49.098Z,6.50
2019-05-06T19:51:16.625Z,5.93
2019-05-06T19:53:45.159Z,5.73
2019-05-06T19:56:14.072Z,5.90
2019-05-06T19:58:43.057Z,6.00
2019-05-06T20:01:12.836Z,6.60
2019-05-06T20:03:40.682Z,6.50
2019-05-06T20:06:27.613Z,7.00
2019-05-06T20:09:17.686Z,6.77
2019-05-06T20:11:45.513Z,7.03
2019-05-06T20:14:13.555Z,6.13
2019-05-06T20:16:41.976Z,6.47
2019-05-06T20:19:09.662Z,6.47
2019-05-06T20:21:37.470Z,6.30
2019-05-06T20:24:05.241Z,6.43
2019-05-06T20:26:33.125Z,6.40
2019-05-06T20:29:02.234Z,6.00
2019-05-06T20:31:32.004Z,6.03
2019-05-06T20:33:59.056Z,6.07
2019-05-06T20:36:26.614Z,6.30
2019-05-06T20:38:54.174Z,6.03
2019-05-06T20:41:24.724Z,7.13
2019-05-06T20:43:52.286Z,5.67
2019-05-06T20:46:21.858Z,6.23
2019-05-06T20:48:49.147Z,6.90
2019-05-06T20:51:16.603Z,6.80
2019-05-06T20:53:44.075Z,6.77
2019-05-06T20:56:12.340Z,6.30
2019-05-06T20:58:41.839Z,6.30
2019-05-06T21:01:09.279Z,6.70
2019-05-06T21:03:36.731Z,6.20
2019-05-06T21:06:04.179Z,6.90
2019-05-06T21:08:32.809Z,8.07
2019-05-06T21:11:00.318Z,7.17
2019-05-06T21:13:32.405Z,6.60
2019-05-06T21:15:57.059Z,7.10
2019-05-06T21:18:24.560Z,8.43
2019-05-06T21:20:52.051Z,8.80
2019-05-06T21:23:19.514Z,8.10
2019-05-06T21:25:46.997Z,8.37
2019-05-06T21:28:14.487Z,8.80
2019-05-06T21:30:42.937Z,8.60
2019-05-06T21:33:12.437Z,7.80
2019-05-06T21:35:41.817Z,7.00
2019-05-06T21:38:09.149Z,6.80
2019-05-06T21:40:36.596Z,6.93
2019-05-06T21:43:04.074Z,6.80
2019-05-06T21:45:33.174Z,7.23
2019-05-06T21:48:02.824Z,6.77
2019-05-06T21:50:49.578Z,7.10
2019-05-06T21:53:17.062Z,7.80
2019-05-06T21:55:44.560Z,7.93
2019-05-06T21:58:12.575Z,7.63
2019-05-06T22:00:45.401Z,7.50
2019-05-06T22:03:13.527Z,6.93
2019-05-06T22:05:41.372Z,7.20
2019-05-06T22:08:09.236Z,7.60
2019-05-06T22:10:36.711Z,7.90
2019-05-06T22:13:04.208Z,7.53
2019-05-06T22:15:32.430Z,8.30
2019-05-06T22:18:02.390Z,8.30
2019-05-06T22:20:32.757Z,8.40
2019-05-06T22:23:00.341Z,7.30
2019-05-06T22:25:27.782Z,8.77
2019-05-06T22:27:55.225Z,8.37
2019-05-06T22:30:23.913Z,8.40
2019-05-06T22:32:52.701Z,9.60
2019-05-06T22:35:20.246Z,9.67
2019-05-06T22:37:47.898Z,9.33
2019-05-06T22:40:15.370Z,9.97
2019-05-06T22:42:43.215Z,9.63
2019-05-06T22:45:12.588Z,9.20
2019-05-06T22:47:41.962Z,8.53
2019-05-06T22:50:10.030Z,9.10
2019-05-06T22:52:37.515Z,8.30
2019-05-06T22:55:05.072Z,8.97
2019-05-06T22:57:33.029Z,9.33
2019-05-06T23:00:03.310Z,8.50
2019-05-06T23:02:48.699Z,8.60
2019-05-06T23:05:16.191Z,8.17
2019-05-06T23:07:43.672Z,8.23
2019-05-06T23:10:11.446Z,8.83
2019-05-06T23:12:38.890Z,7.97
2019-05-06T23:15:06.562Z,8.07
2019-05-06T23:17:34.443Z,7.43
2019-05-06T23:20:02.380Z,8.20
2019-05-06T23:22:31.572Z,8.23
2019-05-06T23:24:59.199Z,7.77
2019-05-06T23:27:26.667Z,8.07
2019-05-06T23:29:54.164Z,7.87
2019-05-06T23:32:22.946Z,8.40
2019-05-06T23:34:52.354Z,8.47
2019-05-06T23:37:23.306Z,7.70
2019-05-06T23:40:33.086Z,8.40
2019-05-06T23:43:37.760Z,7.43
2019-05-06T23:46:42.280Z,8.63
2019-05-06T23:49:46.522Z,9.47
2019-05-06T23:52:52.052Z,8.97
2019-05-06T23:55:56.913Z,8.03
2019-05-06T23:58:23.367Z,8.43
